Flight Track Log - Related Links

Times and Time Zones

All times are in EDT time to prevent confusion due to time zone crossing. See the SWA902 flight status page for this flight to view local times or setup timezone preferences in your user account.

Time Position Orientation Groundspeed Altitude Reporting Facility
EDT Latitude Longitude Course Direction KTS MPH feet Rate Location/Type
Sun 01:41:48 PM 41.6683 -71.4175 158° South 211 243 2,100  Level Boston Center
Sun 01:42:48 PM 41.6097 -71.3906 161° South 273 314 4,000 1,550 Climbing Boston Center
Sun 01:43:48 PM 41.5386 -71.3667 166° South 273 314 5,200 2,250 Climbing Boston Center
Sun 01:44:48 PM 41.4636 -71.3431 167° South 273 314 8,500 2,600 Climbing Boston Center
Sun 01:45:48 PM 41.3842 -71.3169 166° South 286 329 10,400 2,600 Climbing Boston Center
Sun 01:46:48 PM 41.3067 -71.2933 167° South 309 356 13,700 2,850 Climbing Boston Center
Sun 01:47:48 PM 41.2003 -71.2731 172° South 335 386 16,100 2,050 Climbing Boston Center
Sun 01:48:48 PM 41.1344 -71.3569 224° Southwest 325 374 17,800 2,150 Climbing Boston Center
Sun 01:49:48 PM 41.0817 -71.5150 246° West 357 411 20,400 2,450 Climbing Boston Center
Sun 01:50:48 PM 41.0178 -71.6231 232° Southwest 389 448 22,700 2,350 Climbing Boston Center
Sun 01:51:48 PM 40.9269 -71.7644 230° Southwest 428 493 25,100 2,350 Climbing Boston Center
Sun 01:52:48 PM 40.8422 -71.8858 227° Southwest 448 516 27,400 2,300 Climbing Boston Center
Sun 01:53:48 PM 40.7594 -71.9853 222° Southwest 448 516 29,700 1,850 Climbing Boston Center
Sun 01:54:48 PM 40.6825 -72.0733 221° Southwest 453 521 31,100 1,850 Climbing Boston Center
Sun 01:55:48 PM 40.5850 -72.2106 227° Southwest 447 514 33,400 2,300 Climbing Boston Center
Sun 01:56:48 PM 40.5019 -72.3256 226° Southwest 441 507 35,700 1,750 Climbing Boston Center
Sun 01:57:48 PM 40.4228 -72.4347 226° Southwest 425 489 36,900 1,050 Climbing Boston Center
Sun 01:58:48 PM 40.3372 -72.5464 225° Southwest 425 489 37,800 900 Climbing Boston Center
Sun 01:59:48 PM 40.2539 -72.6603 226° Southwest 430 495 38,700 1,100 Climbing Boston Center
Sun 02:00:48 PM 40.1617 -72.7875 227° Southwest 435 501 40,000 650 Climbing Boston Center
Sun 02:01:48 PM 40.0803 -72.8956 225° Southwest 435 501 40,000  Level Boston Center
Sun 02:02:12 PM 40.0486 -72.9381 226° Southwest 437 503 40,000  Level Washington Center
Sun 02:03:12 PM 39.9656 -73.0497 226° Southwest 446 513 40,000  Level Washington Center
Sun 02:04:13 PM 39.8825 -73.1608 226° Southwest 440 506 40,000  Level Washington Center
Sun 02:05:14 PM 39.7972 -73.2689 224° Southwest 440 506 40,000  Level Washington Center
Sun 02:06:12 PM 39.7161 -73.3822 227° Southwest 434 499 40,000  Level Washington Center
Sun 02:07:12 PM 39.6364 -73.4764 222° Southwest 434 499 40,000  Level Washington Center
Sun 02:08:13 PM 39.5508 -73.5892 225° Southwest 429 494 40,000  Level Washington Center
Sun 02:09:14 PM 39.4692 -73.6936 225° Southwest 429 494 40,000  Level Washington Center
Sun 02:10:14 PM 39.3833 -73.8033 225° Southwest 429 494 40,000  Level Washington Center
Sun 02:11:12 PM 39.2994 -73.9128 225° Southwest 429 494 40,000  Level Washington Center
Sun 02:12:12 PM 39.2156 -74.0192 225° Southwest 429 494 40,000  Level Washington Center
Sun 02:13:13 PM 39.1314 -74.1306 226° Southwest 429 494 40,000  Level Washington Center
Sun 02:14:13 PM 39.0492 -74.2339 224° Southwest 429 494 40,000  Level Washington Center
Sun 02:15:14 PM 38.9650 -74.3394 224° Southwest 429 494 40,000  Level Washington Center
Sun 02:16:12 PM 38.8786 -74.4478 224° Southwest 429 494 40,000  Level Washington Center
Sun 02:17:13 PM 38.7942 -74.5556 225° Southwest 429 494 40,000  Level Washington Center
Sun 02:18:14 PM 38.7094 -74.6606 224° Southwest 429 494 40,000  Level Washington Center
Sun 02:19:14 PM 38.6247 -74.7653 224° Southwest 429 494 40,000  Level Washington Center
Sun 02:20:12 PM 38.5400 -74.8697 224° Southwest 429 494 40,000  Level Washington Center
Sun 02:21:14 PM 38.4550 -74.9767 225° Southwest 429 494 40,000  Level Washington Center
Sun 02:22:15 PM 38.3681 -75.0753 222° Southwest 424 488 40,000  Level Washington Center
Sun 02:23:12 PM 38.2642 -75.1714 216° Southwest 424 488 40,000  Level Washington Center
Sun 02:24:13 PM 38.1642 -75.2536 213° Southwest 429 494 40,000  Level Washington Center
Sun 02:25:14 PM 38.0664 -75.3386 214° Southwest 429 494 40,000  Level Washington Center
Sun 02:26:12 PM 37.9708 -75.4233 215° Southwest 429 494 40,000  Level Washington Center
Sun 02:27:13 PM 37.8728 -75.5075 214° Southwest 429 494 40,000  Level Washington Center
Sun 02:28:13 PM 37.7747 -75.5892 213° Southwest 429 494 40,000  Level Washington Center
Sun 02:29:14 PM 37.6789 -75.6706 214° Southwest 423 487 40,000  Level Washington Center
Sun 02:30:12 PM 37.5828 -75.7517 214° Southwest 423 487 40,000  Level Washington Center
Sun 02:31:12 PM 37.4889 -75.8353 215° Southwest 423 487 40,000  Level Washington Center
Sun 02:32:13 PM 37.3928 -75.9133 213° Southwest 423 487 40,000  Level Washington Center
Sun 02:33:13 PM 37.2986 -75.9914 213° Southwest 417 480 40,000  Level Washington Center
Sun 02:34:14 PM 37.2044 -76.0717 214° Southwest 417 480 40,000  Level Washington Center
Sun 02:35:14 PM 37.1081 -76.1517 214° Southwest 417 480 40,000  Level Washington Center
Sun 02:36:12 PM 37.0097 -76.2292 212° Southwest 423 487 40,000  Level Washington Center
Sun 02:37:12 PM 36.9111 -76.3089 213° Southwest 423 487 40,000  Level Washington Center
Sun 02:38:13 PM 36.8169 -76.3858 213° Southwest 423 487 40,000  Level Washington Center
Sun 02:39:14 PM 36.7203 -76.4678 214° Southwest 423 487 40,000  Level Washington Center
Sun 02:40:12 PM 36.6322 -76.5444 215° Southwest 423 487 40,000  Level Washington Center
Sun 02:41:13 PM 36.5356 -76.6208 212° Southwest 423 487 40,000  Level Washington Center
Sun 02:42:14 PM 36.4389 -76.6997 213° Southwest 418 481 40,000  Level Washington Center
Sun 02:43:14 PM 36.3422 -76.7781 213° Southwest 418 481 40,000  Level Washington Center
Sun 02:44:14 PM 36.2494 -76.8592 215° Southwest 418 481 40,000  Level Washington Center
Sun 02:45:12 PM 36.1608 -76.9453 218° Southwest 418 481 40,000  Level Washington Center
Sun 02:46:13 PM 36.0722 -77.0311 218° Southwest 413 475 40,000  Level Washington Center
Sun 02:47:14 PM 35.9858 -77.1167 219° Southwest 408 470 40,000  Level Washington Center
Sun 02:48:14 PM 35.9033 -77.2025 220° Southwest 402 463 40,000  Level Washington Center
Sun 02:49:12 PM 35.8144 -77.2878 218° Southwest 402 463 40,000  Level Washington Center
Sun 02:50:13 PM 35.7256 -77.3753 219° Southwest 402 463 40,000  Level Washington Center
Sun 02:51:14 PM 35.6364 -77.4628 219° Southwest 407 468 40,000  Level Washington Center
Sun 02:52:12 PM 35.5475 -77.5500 219° Southwest 407 468 40,000  Level Washington Center
Sun 02:53:13 PM 35.4583 -77.6372 219° Southwest 407 468 40,000  Level Washington Center
Sun 02:54:13 PM 35.3672 -77.7214 217° Southwest 407 468 40,000  Level Washington Center
Sun 02:55:14 PM 35.2781 -77.8081 218° Southwest 407 468 40,000  Level Washington Center
Sun 02:56:12 PM 35.1886 -77.8972 219° Southwest 413 475 40,000  Level Washington Center
Sun 02:57:12 PM 35.0994 -77.9833 218° Southwest 413 475 40,000  Level Washington Center
Sun 02:58:14 PM 35.0058 -78.0719 218° Southwest 418 481 40,000  Level Washington Center
Sun 02:59:12 PM 34.9119 -78.1653 219° Southwest 418 481 40,000  Level Washington Center
Sun 03:00:13 PM 34.8183 -78.2483 216° Southwest 418 481 40,000  Level Washington Center
Sun 03:01:13 PM 34.7392 -78.3342 222° Southwest 418 481 40,000  Level Washington Center
Sun 03:02:52 PM 34.5850 -78.4719 216° Southwest 412 474 40,000  Level Jacksonville Center
Sun 03:03:52 PM 34.4942 -78.5597 219° Southwest 412 474 40,000  Level Jacksonville Center
Sun 03:04:52 PM 34.3994 -78.6550 220° Southwest 412 474 40,000  Level Jacksonville Center
Sun 03:05:52 PM 34.3064 -78.7425 218° Southwest 412 474 40,000  Level Jacksonville Center
Sun 03:06:52 PM 34.2175 -78.8269 218° Southwest 412 474 40,000  Level Jacksonville Center
Sun 03:07:52 PM 34.1219 -78.9117 216° Southwest 417 480 40,000  Level Jacksonville Center
Sun 03:08:52 PM 34.0219 -78.9839 211° Southwest 422 486 40,000  Level Jacksonville Center
Sun 03:09:52 PM 33.9069 -79.0367 201° Southwest 430 495 40,000  Level Jacksonville Center
Sun 03:10:52 PM 33.7939 -79.0917 202° Southwest 440 506 40,000  Level Jacksonville Center
Sun 03:11:52 PM 33.6847 -79.1386 200° South 445 512 40,000  Level Jacksonville Center
Sun 03:12:52 PM 33.5672 -79.1936 201° Southwest 440 506 40,000  Level Jacksonville Center
Sun 03:13:52 PM 33.4539 -79.2456 201° Southwest 440 506 40,000  Level Jacksonville Center
Sun 03:14:52 PM 33.3386 -79.3000 202° Southwest 445 512 40,000  Level Jacksonville Center
Sun 03:15:52 PM 33.2233 -79.3544 202° Southwest 445 512 40,000  Level Jacksonville Center
Sun 03:16:52 PM 33.1081 -79.4108 202° Southwest 445 512 40,000  Level Jacksonville Center
Sun 03:17:52 PM 33.0050 -79.4594 202° Southwest 445 512 40,000  Level Jacksonville Center
Sun 03:18:52 PM 32.8897 -79.5133 201° Southwest 445 512 40,000  Level Jacksonville Center
Sun 03:19:52 PM 32.7742 -79.5647 201° Southwest 445 512 40,000  Level Jacksonville Center
Sun 03:20:52 PM 32.6586 -79.6183 201° Southwest 445 512 40,000  Level Jacksonville Center
Sun 03:21:52 PM 32.5389 -79.6744 202° Southwest 445 512 40,000  Level Jacksonville Center
Sun 03:22:52 PM 32.4214 -79.7303 202° Southwest 450 518 40,000  Level Jacksonville Center
Sun 03:23:52 PM 32.3058 -79.7833 201° Southwest 450 518 40,000  Level Jacksonville Center
Sun 03:24:52 PM 32.1861 -79.8364 201° Southwest 456 525 40,000  Level Jacksonville Center
Sun 03:25:52 PM 32.0664 -79.8919 201° Southwest 456 525 40,000  Level Jacksonville Center
Sun 03:26:52 PM 31.9506 -79.9472 202° Southwest 456 525 40,000  Level Jacksonville Center
Sun 03:27:52 PM 31.8308 -79.9975 200° South 456 525 40,000  Level Jacksonville Center
Sun 03:28:52 PM 31.7131 -80.0525 202° Southwest 456 525 40,000  Level Jacksonville Center
Sun 03:29:52 PM 31.5953 -80.1047 201° Southwest 456 525 40,000  Level Jacksonville Center
Sun 03:30:52 PM 31.4794 -80.1594 202° Southwest 461 531 40,000  Level Jacksonville Center
Sun 03:31:52 PM 31.3636 -80.2114 201° Southwest 456 525 40,000  Level Jacksonville Center
Sun 03:32:52 PM 31.2542 -80.2631 202° Southwest 442 509 40,000  Level Jacksonville Center
Sun 03:33:52 PM 31.1381 -80.3125 200° South 442 509 40,000  Level Jacksonville Center
Sun 03:34:52 PM 31.0242 -80.3617 200° South 442 509 40,000 -500 Level Jacksonville Center
Sun 03:35:52 PM 30.9125 -80.4131 202° Southwest 442 509 39,000 -1,900 Descending Jacksonville Center
Sun 03:36:52 PM 30.7967 -80.4644 201° Southwest 447 514 36,200 -2,500 Descending Jacksonville Center
Sun 03:37:52 PM 30.6806 -80.5133 200° South 447 514 34,000 -1,100 Descending Jacksonville Center
Sun 03:38:52 PM 30.5689 -80.5619 201° Southwest 441 507 34,000  Level Jacksonville Center
Sun 03:39:52 PM 30.4611 -80.6128 202° Southwest 436 502 34,000 -500 Level Jacksonville Center
Sun 03:40:52 PM 30.3492 -80.6611 200° South 429 494 33,000 -1,000 Descending Jacksonville Center
Sun 03:41:52 PM 30.2333 -80.7119 201° Southwest 429 494 32,000 -950 Descending Jacksonville Center
Sun 03:42:52 PM 30.1172 -80.7625 201° Southwest 440 506 31,100 -950 Descending Jacksonville Center
Sun 03:43:52 PM 30.0011 -80.8131 201° Southwest 451 519 30,100 -1,050 Descending Jacksonville Center
Sun 03:44:52 PM 29.8681 -80.8519 194° South 446 513 29,000 -1,700 Descending Jacksonville Center
Sun 03:45:52 PM 29.7517 -80.8856 194° South 441 507 26,700 -2,300 Descending Jacksonville Center
Sun 03:46:52 PM 29.6417 -80.9164 194° South 429 494 24,400 -2,250 Descending Jacksonville Center
Sun 03:47:52 PM 29.5294 -80.9522 196° South 424 488 22,200 -2,200 Descending Jacksonville Center
Sun 03:48:52 PM 29.4317 -80.9731 191° South 397 457 20,000 -2,050 Descending Jacksonville Center
Sun 03:49:52 PM 29.3339 -81.0036 195° South 377 434 18,100 -1,950 Descending Jacksonville Center
Sun 03:50:52 PM 29.2403 -81.0269 192° South 365 420 16,100 -2,000 Descending Jacksonville Center
Sun 03:51:52 PM 29.1511 -81.0547 195° South 348 400 14,100 -1,950 Descending Jacksonville Center
Sun 03:52:52 PM 29.0636 -81.0778 193° South 336 387 12,200 -1,100 Descending Jacksonville Center
Sun 03:53:52 PM 28.9825 -81.0864 185° South 318 366 11,900 -400 Descending Jacksonville Center
Sun 03:54:52 PM 28.9133 -81.0756 172° South 285 328 11,400 -952 Descending Jacksonville Center
Sun 03:55:58 PM 28.8333 -81.0667 174° South 239 275 9,900 -1,388 Descending Orlando TRACON
Sun 03:56:53 PM 28.7833 -81.0500 164° South 233 268 8,600 -1,370 Descending Orlando TRACON
Sun 03:58:05 PM 28.7667 -81.1333 257° West 245 282 7,000 -1,381 Descending Orlando TRACON
Sun 03:58:59 PM 28.7333 -81.1833 233° Southwest 230 265 5,700 -1,368 Descending Orlando TRACON
Sun 03:59:59 PM 28.6833 -81.2333 221° Southwest 221 254 4,400 -1,000 Descending Orlando TRACON
Sun 04:00:59 PM 28.6167 -81.2667 204° Southwest 215 247 3,700 -900 Descending Orlando TRACON
Sun 04:01:59 PM 28.5667 -81.2833 196° South 207 238 2,600 -1,095 Descending Orlando TRACON
Sun 04:03:05 PM 28.5167 -81.2833 180° South 198 228 1,400 -1,000 Descending Orlando TRACON
Sun 04:04:05 PM 28.4667 -81.2833 180° South 145 167 500 -900 Descending Orlando TRACON
Sun 04:06:00 PM 28.4294 -81.3090 336° Northwest  Level Estimated
Sun 04:13:00 PM 28.4294 -81.3090 336° Northwest  Level Estimated
Sun 04:14:00 PM 28.4294 -81.3090 336° Northwest  Level Estimated
Sun 04:15:00 PM 28.4294 -81.3090 336° Northwest  Level Estimated

Login

Don't have an account? Register now (free) for customized features, flight alerts, and more!